createdAt,value
2019-03-25T00:00:48.062Z,31.30
2019-03-25T00:05:39.301Z,31.50
2019-03-25T00:10:30.722Z,31.40
2019-03-25T00:15:22.042Z,30.30
2019-03-25T00:20:15.711Z,30.30
2019-03-25T00:25:07.116Z,31.50
2019-03-25T00:29:58.505Z,31.50
2019-03-25T00:34:49.913Z,31.00
2019-03-25T00:39:43.554Z,30.40
2019-03-25T00:44:35.003Z,30.10
2019-03-25T00:49:28.612Z,29.50
2019-03-25T00:54:22.261Z,28.30
2019-03-25T00:59:13.667Z,27.40
2019-03-25T01:04:05.085Z,27.70
2019-03-25T01:08:56.467Z,27.80
2019-03-25T01:13:50.058Z,25.50
2019-03-25T01:18:43.775Z,22.80
2019-03-25T01:23:35.175Z,24.20
2019-03-25T01:28:26.548Z,23.40
2019-03-25T01:33:17.953Z,23.70
2019-03-25T01:38:09.326Z,23.30
2019-03-25T01:43:00.712Z,22.40
2019-03-25T01:47:52.091Z,21.70
2019-03-25T01:52:43.524Z,22.00
2019-03-25T01:57:34.891Z,21.30
2019-03-25T02:02:26.266Z,20.00
2019-03-25T02:07:17.631Z,20.30
2019-03-25T02:12:09.000Z,21.00
2019-03-25T02:17:02.629Z,20.20
2019-03-25T02:21:54.120Z,20.00
2019-03-25T02:26:45.413Z,20.80
2019-03-25T02:31:39.049Z,20.80
2019-03-25T02:36:30.546Z,20.70
2019-03-25T02:41:21.896Z,21.80
2019-03-25T02:46:13.319Z,21.20
2019-03-25T02:51:04.652Z,21.90
2019-03-25T02:55:56.112Z,21.10
2019-03-25T03:00:47.439Z,22.50
2019-03-25T03:05:41.014Z,21.60
2019-03-25T03:10:32.484Z,20.30
2019-03-25T03:15:26.043Z,20.20
2019-03-25T03:20:17.515Z,20.90
2019-03-25T03:25:08.879Z,21.60
2019-03-25T03:30:00.851Z,21.90
2019-03-25T03:39:49.859Z,22.30
2019-03-25T03:44:41.368Z,23.30
2019-03-25T03:49:32.562Z,23.30
2019-03-25T03:54:24.041Z,23.80
2019-03-25T03:59:15.388Z,24.20
2019-03-25T04:04:06.772Z,23.50
2019-03-25T04:08:58.145Z,23.60
2019-03-25T04:13:54.065Z,23.70
2019-03-25T04:18:45.503Z,24.50
2019-03-25T04:23:36.844Z,24.90
2019-03-25T04:28:30.458Z,25.70
2019-03-25T04:33:21.967Z,25.90
2019-03-25T04:38:15.493Z,26.70
2019-03-25T04:43:09.123Z,27.20
2019-03-25T04:48:00.543Z,28.90
2019-03-25T04:52:54.201Z,29.80
2019-03-25T04:57:45.578Z,30.60
2019-03-25T05:02:42.013Z,32.50
2019-03-25T05:07:33.427Z,32.00
2019-03-25T05:12:24.862Z,32.10
2019-03-25T05:17:16.163Z,33.60
2019-03-25T05:22:11.107Z,32.60
2019-03-25T05:27:01.212Z,34.40
2019-03-25T05:31:52.653Z,36.10
2019-03-25T05:36:44.002Z,38.10
2019-03-25T05:41:35.444Z,38.20
2019-03-25T05:46:31.264Z,39.40
2019-03-25T05:51:24.946Z,37.70
2019-03-25T05:56:16.390Z,37.40
2019-03-25T06:01:07.839Z,37.80
2019-03-25T06:05:59.106Z,36.70
2019-03-25T06:10:50.550Z,34.70
2019-03-25T06:15:44.104Z,35.60
2019-03-25T06:20:35.627Z,35.20
2019-03-25T06:25:26.910Z,34.60
2019-03-25T06:30:18.364Z,34.50
2019-03-25T06:35:09.759Z,31.90
2019-03-25T06:40:01.078Z,30.40
2019-03-25T06:44:54.835Z,27.00
2019-03-25T06:49:46.265Z,26.00
2019-03-25T06:54:37.705Z,26.20
2019-03-25T06:59:29.031Z,26.00
2019-03-25T07:04:20.470Z,25.90
2019-03-25T07:09:11.792Z,24.30
2019-03-25T07:14:03.237Z,23.70
2019-03-25T07:18:54.620Z,22.30
2019-03-25T07:23:45.986Z,22.60
2019-03-25T07:28:39.218Z,20.10
2019-03-25T07:33:30.992Z,20.30
2019-03-25T07:38:22.406Z,21.80
2019-03-25T07:43:13.865Z,19.80
2019-03-25T07:48:07.381Z,19.90
2019-03-25T07:53:19.226Z,19.00
2019-03-25T07:58:10.676Z,19.80
2019-03-25T08:03:02.119Z,19.30
2019-03-25T08:07:55.654Z,19.90
2019-03-25T08:12:47.103Z,18.60
2019-03-25T08:17:40.613Z,18.80
2019-03-25T08:22:34.271Z,18.10
2019-03-25T08:27:25.736Z,17.10
2019-03-25T08:32:17.134Z,16.50
2019-03-25T08:37:08.512Z,16.00
2019-03-25T08:46:55.788Z,17.10
2019-03-25T08:51:47.160Z,17.00
2019-03-25T08:56:38.567Z,15.70
2019-03-25T09:01:32.166Z,15.30
2019-03-25T09:06:23.575Z,16.00
2019-03-25T09:11:14.968Z,18.30
2019-03-25T09:16:08.623Z,17.50
2019-03-25T09:21:00.067Z,19.30
2019-03-25T09:25:51.426Z,19.00
2019-03-25T09:30:42.784Z,18.70
2019-03-25T09:35:34.277Z,17.50
2019-03-25T09:40:25.576Z,17.50
2019-03-25T09:45:23.783Z,17.40
2019-03-25T09:50:17.375Z,18.10
2019-03-25T09:55:20.091Z,19.70
2019-03-25T10:00:11.504Z,19.20
2019-03-25T10:05:05.171Z,19.10
2019-03-25T10:09:56.607Z,19.10
2019-03-25T10:14:50.261Z,19.60
2019-03-25T10:19:41.715Z,18.50
2019-03-25T10:24:37.555Z,18.20
2019-03-25T10:29:31.200Z,17.20
2019-03-25T10:34:22.663Z,17.30
2019-03-25T10:39:14.023Z,17.20
2019-03-25T10:44:07.666Z,18.10
2019-03-25T10:48:59.053Z,16.40
2019-03-25T10:53:50.458Z,16.90
2019-03-25T10:58:41.888Z,16.90
2019-03-25T11:03:33.273Z,15.10
2019-03-25T11:08:26.793Z,16.00
2019-03-25T11:13:18.259Z,16.70
2019-03-25T11:18:18.659Z,16.80
2019-03-25T11:23:14.572Z,15.60
2019-03-25T11:28:06.001Z,17.50
2019-03-25T11:32:57.453Z,18.40
2019-03-25T11:37:48.809Z,19.10
2019-03-25T11:42:40.196Z,17.80
2019-03-25T11:47:31.578Z,18.20
2019-03-25T11:52:23.064Z,18.30
2019-03-25T11:57:16.668Z,18.10
2019-03-25T12:02:18.245Z,16.10
2019-03-25T12:06:59.437Z,13.80
2019-03-25T12:11:50.845Z,13.70
2019-03-25T12:16:44.465Z,14.10
2019-03-25T12:21:40.403Z,14.50
2019-03-25T12:26:38.704Z,12.80
2019-03-25T12:31:30.144Z,12.90
2019-03-25T12:36:21.518Z,14.00
2019-03-25T12:41:12.946Z,18.80
2019-03-25T12:46:04.218Z,22.80
2019-03-25T12:50:55.733Z,25.80
2019-03-25T12:55:47.046Z,30.90
2019-03-25T13:00:38.503Z,30.80
2019-03-25T13:05:30.202Z,34.40
2019-03-25T13:10:21.567Z,32.40
2019-03-25T13:15:13.028Z,29.00
2019-03-25T13:20:04.348Z,30.60
2019-03-25T13:24:55.768Z,26.80
2019-03-25T13:29:53.291Z,25.20
2019-03-25T13:34:38.684Z,22.50
2019-03-25T13:39:30.045Z,18.20
2019-03-25T13:44:21.413Z,15.00
2019-03-25T13:49:12.873Z,15.20
2019-03-25T13:54:04.197Z,14.70
2019-03-25T13:58:55.612Z,14.50
2019-03-25T14:03:47.054Z,14.50
2019-03-25T14:08:38.440Z,15.30
2019-03-25T14:13:29.812Z,15.50
2019-03-25T14:18:21.237Z,26.50
2019-03-25T14:23:12.594Z,39.90
2019-03-25T14:28:03.949Z,49.10
2019-03-25T14:32:55.376Z,46.80
2019-03-25T14:37:46.826Z,48.30
2019-03-25T14:42:38.204Z,47.60
2019-03-25T14:47:29.609Z,48.20
2019-03-25T14:52:20.962Z,43.50
2019-03-25T14:57:12.382Z,41.50
2019-03-25T15:02:03.723Z,37.60
2019-03-25T15:06:55.115Z,36.20
2019-03-25T15:11:46.496Z,38.70
2019-03-25T15:16:37.894Z,35.30
2019-03-25T15:21:29.387Z,32.50
2019-03-25T15:26:20.738Z,30.90
2019-03-25T15:31:12.060Z,31.40
2019-03-25T15:36:03.571Z,32.40
2019-03-25T15:40:54.926Z,31.90
2019-03-25T15:45:46.271Z,29.00
2019-03-25T15:50:37.645Z,29.10
2019-03-25T15:55:28.972Z,26.80
2019-03-25T16:00:20.418Z,25.10
2019-03-25T16:05:11.858Z,26.10
2019-03-25T16:10:03.168Z,25.20
2019-03-25T16:14:54.596Z,25.70
2019-03-25T16:19:46.047Z,26.00
2019-03-25T16:24:37.430Z,27.70
2019-03-25T16:29:28.831Z,27.00
2019-03-25T16:34:20.141Z,26.50
2019-03-25T16:39:11.670Z,25.90
2019-03-25T16:44:03.004Z,27.40
2019-03-25T16:48:55.817Z,25.70
2019-03-25T16:53:45.770Z,25.30
2019-03-25T16:58:37.244Z,26.20
2019-03-25T17:03:28.550Z,26.50
2019-03-25T17:08:20.050Z,26.40
2019-03-25T17:13:11.353Z,27.00
2019-03-25T17:18:02.807Z,27.60
2019-03-25T17:22:54.132Z,26.90
2019-03-25T17:27:45.606Z,27.50
2019-03-25T17:32:37.039Z,27.90
2019-03-25T17:37:28.389Z,27.80
2019-03-25T17:42:19.897Z,29.10
2019-03-25T17:47:11.144Z,28.70
2019-03-25T17:52:02.575Z,28.50
2019-03-25T17:56:54.009Z,27.70
2019-03-25T18:01:45.388Z,28.60
2019-03-25T18:06:37.003Z,28.00
2019-03-25T18:16:19.786Z,26.60
2019-03-25T18:21:10.875Z,27.50
2019-03-25T18:26:02.723Z,29.40
2019-03-25T18:30:53.703Z,28.80
2019-03-25T18:35:45.194Z,29.30
2019-03-25T18:40:36.466Z,33.00
2019-03-25T18:45:30.174Z,33.70
2019-03-25T18:50:21.632Z,33.40
2019-03-25T18:55:13.046Z,32.60
2019-03-25T19:04:58.168Z,34.70
2019-03-25T19:09:49.398Z,34.40
2019-03-25T19:14:43.031Z,37.10
2019-03-25T19:19:36.654Z,36.20
2019-03-25T19:24:30.311Z,37.00
2019-03-25T19:29:21.759Z,36.40
2019-03-25T19:34:13.264Z,38.50
2019-03-25T19:39:04.507Z,41.70
2019-03-25T19:43:58.084Z,48.50
2019-03-25T19:48:49.650Z,48.10
2019-03-25T19:53:43.131Z,49.20
2019-03-25T19:58:34.587Z,52.60
2019-03-25T20:03:26.315Z,55.40
2019-03-25T20:08:17.337Z,66.30
2019-03-25T20:13:08.822Z,70.50
2019-03-25T20:18:00.172Z,72.80
2019-03-25T20:22:53.726Z,74.50
2019-03-25T20:27:45.202Z,77.40
2019-03-25T20:32:38.859Z,77.80
2019-03-25T20:37:30.304Z,79.90
2019-03-25T20:42:21.723Z,82.60
2019-03-25T20:47:13.077Z,82.70
2019-03-25T20:52:04.489Z,83.20
2019-03-25T20:56:56.021Z,82.90
2019-03-25T21:01:47.220Z,82.60
2019-03-25T21:06:41.454Z,82.30
2019-03-25T21:11:32.939Z,82.20
2019-03-25T21:16:24.399Z,83.30
2019-03-25T21:21:15.783Z,85.40
2019-03-25T21:26:07.267Z,88.00
2019-03-25T21:30:58.566Z,87.10
2019-03-25T21:35:49.925Z,87.80
2019-03-25T21:40:43.549Z,88.10
2019-03-25T21:45:35.013Z,87.60
2019-03-25T21:50:28.509Z,86.40
2019-03-25T21:55:20.193Z,87.00
2019-03-25T22:00:13.682Z,90.00
2019-03-25T22:05:04.994Z,89.50
2019-03-25T22:09:58.502Z,87.80
2019-03-25T22:14:50.004Z,87.70
2019-03-25T22:19:41.369Z,85.90
2019-03-25T22:24:35.002Z,85.60
2019-03-25T22:29:26.531Z,85.40
2019-03-25T22:34:18.182Z,86.30
2019-03-25T22:39:11.603Z,86.70
2019-03-25T22:44:03.081Z,87.60
2019-03-25T22:48:54.395Z,89.20
2019-03-25T22:53:45.940Z,89.50
2019-03-25T22:58:37.199Z,88.00
2019-03-25T23:03:40.041Z,87.70
2019-03-25T23:08:22.261Z,88.70
2019-03-25T23:13:14.045Z,88.60
2019-03-25T23:18:05.041Z,88.50
2019-03-25T23:23:01.526Z,88.30
2019-03-25T23:27:47.923Z,89.80
2019-03-25T23:32:39.312Z,89.30
2019-03-25T23:37:32.883Z,88.80
2019-03-25T23:42:26.483Z,86.90
2019-03-25T23:47:18.001Z,86.50
2019-03-25T23:52:11.575Z,86.10
2019-03-25T23:57:02.969Z,86.00
